Time;durP1;ratioP1;P1;durP2;ratioP2;P2;SDS_P1;SDS_P2;PMS_P1;PMS_P2;Temp;Humidity;BMP_temperature;BMP_pressure;BME280_temperature;BME280_humidity;BME280_pressure;Samples;Min_cycle;Max_cycle;Signal;HPM_P1;HPM_P2
2023/01/13 00:03:36;;;;;;;28.25;22.67;;;;;;;;;;10124149;28;20071;-76
2023/01/13 00:08:50;;;;;;;29.02;23.10;;;;;;;;;;10121319;28;20139;-76
2023/01/13 00:13:43;;;;;;;38.70;24.35;;;;;;;;;;10124631;28;20083;-76
2023/01/13 00:18:37;;;;;;;29.55;22.42;;;;;;;;;;10123810;28;20045;-76
2023/01/13 00:23:33;;;;;;;27.27;23.02;;;;;;;;;;10119211;28;20096;-76
2023/01/13 00:28:26;;;;;;;25.20;21.60;;;;;;;;;;10126619;28;20048;-76
2023/01/13 00:33:20;;;;;;;25.83;21.27;;;;;;;;;;10120147;28;20036;-76
2023/01/13 00:38:13;;;;;;;20.63;17.38;;;;;;;;;;10110544;28;20076;-76
2023/01/13 00:43:22;;;;;;;21.08;15.30;;;;;;;;;;10108264;28;20049;-76
2023/01/13 00:48:18;;;;;;;19.60;15.57;;;;;;;;;;10129927;28;20489;-76
2023/01/13 00:53:12;;;;;;;17.50;15.32;;;;;;;;;;10113302;28;20036;-76
2023/01/13 00:58:06;;;;;;;23.92;17.83;;;;;;;;;;10119432;28;20132;-76
2023/01/13 01:03:00;;;;;;;22.48;20.17;;;;;;;;;;10110439;28;20049;-75
2023/01/13 01:07:53;;;;;;;28.13;21.98;;;;;;;;;;10114074;28;20060;-75
2023/01/13 01:12:49;;;;;;;29.60;22.88;;;;;;;;;;10118053;28;20049;-76
2023/01/13 01:17:42;;;;;;;26.50;21.35;;;;;;;;;;10117672;28;20393;-74
2023/01/13 01:22:37;;;;;;;27.40;21.92;;;;;;;;;;10117461;28;20044;-75
2023/01/13 01:27:30;;;;;;;27.10;19.77;;;;;;;;;;10114570;28;20048;-75
2023/01/13 01:32:24;;;;;;;22.92;20.50;;;;;;;;;;10108266;28;20098;-75
2023/01/13 01:37:18;;;;;;;22.27;19.90;;;;;;;;;;10121884;28;20041;-75
2023/01/13 01:47:29;;;;;;;21.75;18.42;;;;;;;;;;10115644;28;20057;-75
2023/01/13 01:52:39;;;;;;;17.38;14.88;;;;;;;;;;10132093;28;20106;-75
2023/01/13 01:57:41;;;;;;;24.25;15.95;;;;;;;;;;10111410;28;20057;-77
2023/01/13 02:02:35;;;;;;;20.90;17.70;;;;;;;;;;10129024;28;20132;-77
2023/01/13 02:07:31;;;;;;;23.80;20.15;;;;;;;;;;10121059;28;20052;-77
2023/01/13 02:12:33;;;;;;;24.17;20.55;;;;;;;;;;10127762;28;20475;-77
2023/01/13 02:17:36;;;;;;;27.70;21.08;;;;;;;;;;10137268;28;20041;-76
2023/01/13 02:22:33;;;;;;;27.13;20.23;;;;;;;;;;10104182;28;20089;-76
2023/01/13 02:28:18;;;;;;;25.65;19.98;;;;;;;;;;10117199;28;20072;-77
2023/01/13 02:33:17;;;;;;;21.58;17.42;;;;;;;;;;10018860;28;20158;-77
2023/01/13 02:38:13;;;;;;;17.70;15.80;;;;;;;;;;10127578;28;20090;-77
2023/01/13 02:48:31;;;;;;;18.60;12.90;;;;;;;;;;10112195;28;20468;-76
2023/01/13 02:53:35;;;;;;;16.13;12.35;;;;;;;;;;10126584;28;20459;-78
2023/01/13 02:58:29;;;;;;;15.15;12.35;;;;;;;;;;10142540;28;20494;-77
2023/01/13 03:03:23;;;;;;;21.33;13.65;;;;;;;;;;10124471;28;20132;-77
2023/01/13 03:08:45;;;;;;;21.85;13.00;;;;;;;;;;10129678;28;20045;-76
2023/01/13 03:13:51;;;;;;;12.13;10.82;;;;;;;;;;10126933;28;20045;-77
2023/01/13 03:19:07;;;;;;;13.45;10.30;;;;;;;;;;10112738;28;20049;-78
2023/01/13 03:24:50;;;;;;;13.63;10.20;;;;;;;;;;10110652;28;20041;-79
2023/01/13 03:29:52;;;;;;;17.85;12.52;;;;;;;;;;10096916;28;20055;-79
2023/01/13 03:35:01;;;;;;;15.77;11.65;;;;;;;;;;10126386;28;20049;-79
2023/01/13 03:39:59;;;;;;;13.20;10.73;;;;;;;;;;10113293;28;20059;-79
2023/01/13 03:45:02;;;;;;;19.02;11.23;;;;;;;;;;10129588;28;20574;-79
2023/01/13 03:49:59;;;;;;;13.50;11.15;;;;;;;;;;10118743;28;20053;-79
2023/01/13 03:54:59;;;;;;;16.02;12.55;;;;;;;;;;10116699;28;20475;-77
2023/01/13 03:59:56;;;;;;;16.15;12.65;;;;;;;;;;10142406;28;20040;-77
2023/01/13 04:04:56;;;;;;;15.20;13.10;;;;;;;;;;10118549;28;20429;-77
2023/01/13 04:09:57;;;;;;;18.23;15.60;;;;;;;;;;10110515;28;20623;-77
2023/01/13 04:14:55;;;;;;;17.58;15.63;;;;;;;;;;10120997;28;20181;-79
2023/01/13 04:19:48;;;;;;;24.55;17.92;;;;;;;;;;10121950;28;20417;-78
2023/01/13 04:24:42;;;;;;;18.88;16.35;;;;;;;;;;10124043;28;20500;-78
2023/01/13 04:29:36;;;;;;;21.95;16.65;;;;;;;;;;10124972;28;20045;-78
2023/01/13 04:34:30;;;;;;;20.52;17.65;;;;;;;;;;10122040;28;20103;-76
2023/01/13 04:39:24;;;;;;;20.85;17.95;;;;;;;;;;10122753;28;20052;-76
2023/01/13 04:44:17;;;;;;;19.90;17.88;;;;;;;;;;10119248;28;20045;-76
2023/01/13 04:49:11;;;;;;;20.63;18.42;;;;;;;;;;10123307;28;20045;-77
2023/01/13 04:54:05;;;;;;;20.98;18.75;;;;;;;;;;10121192;28;20151;-76
2023/01/13 04:59:00;;;;;;;21.42;17.05;;;;;;;;;;10113060;28;20045;-77
2023/01/13 05:03:57;;;;;;;24.77;19.33;;;;;;;;;;10118199;28;20052;-76
2023/01/13 05:08:52;;;;;;;22.27;19.23;;;;;;;;;;10117718;28;20048;-77
2023/01/13 05:19:01;;;;;;;22.75;18.75;;;;;;;;;;10119473;28;20051;-78
2023/01/13 05:29:05;;;;;;;27.50;20.98;;;;;;;;;;10114343;28;20071;-72
2023/01/13 05:33:58;;;;;;;27.25;19.88;;;;;;;;;;10115973;28;20052;-73
2023/01/13 05:38:52;;;;;;;25.55;20.75;;;;;;;;;;10116672;28;20053;-73
2023/01/13 05:43:45;;;;;;;22.98;18.60;;;;;;;;;;10117180;28;20049;-72
2023/01/13 05:48:41;;;;;;;27.73;21.48;;;;;;;;;;10115157;28;20124;-72
2023/01/13 05:53:34;;;;;;;24.08;17.48;;;;;;;;;;10115183;28;20057;-73
2023/01/13 05:58:28;;;;;;;18.40;15.82;;;;;;;;;;10114783;28;20063;-72
2023/01/13 06:03:22;;;;;;;19.00;15.88;;;;;;;;;;10115625;28;20504;-71
2023/01/13 06:08:17;;;;;;;19.33;16.23;;;;;;;;;;10115462;28;20145;-71
2023/01/13 06:13:11;;;;;;;19.05;16.42;;;;;;;;;;10115856;28;20049;-71
2023/01/13 06:18:05;;;;;;;20.67;17.48;;;;;;;;;;10118705;28;20075;-72
2023/01/13 06:22:59;;;;;;;22.25;17.40;;;;;;;;;;10125133;28;20075;-73
2023/01/13 06:27:53;;;;;;;18.35;15.95;;;;;;;;;;10121110;28;20413;-73
2023/01/13 06:33:08;;;;;;;20.40;17.25;;;;;;;;;;10137470;28;21572;-77
2023/01/13 06:38:03;;;;;;;19.98;17.55;;;;;;;;;;10121608;28;20211;-74
2023/01/13 06:43:15;;;;;;;19.67;16.20;;;;;;;;;;10121391;28;20497;-73
2023/01/13 06:48:09;;;;;;;20.08;16.98;;;;;;;;;;10117579;28;20049;-65
2023/01/13 06:53:03;;;;;;;26.77;17.17;;;;;;;;;;10119092;28;20072;-74
2023/01/13 06:57:57;;;;;;;22.13;16.13;;;;;;;;;;10124408;28;20045;-74
2023/01/13 07:02:51;;;;;;;25.02;17.92;;;;;;;;;;10127319;28;20048;-74
2023/01/13 07:07:44;;;;;;;20.45;17.02;;;;;;;;;;10119121;28;20048;-74
2023/01/13 07:17:51;;;;;;;25.13;20.20;;;;;;;;;;10114853;28;20421;-71
2023/01/13 07:22:45;;;;;;;26.15;21.08;;;;;;;;;;10110559;28;20045;-71
2023/01/13 07:27:39;;;;;;;30.63;18.95;;;;;;;;;;10121954;28;20049;-71
2023/01/13 07:32:32;;;;;;;26.33;16.45;;;;;;;;;;10126525;28;20055;-74
2023/01/13 07:37:27;;;;;;;21.80;17.85;;;;;;;;;;10124003;28;20045;-74
2023/01/13 07:47:32;;;;;;;23.33;16.67;;;;;;;;;;10124912;28;20405;-77
2023/01/13 07:52:26;;;;;;;27.73;18.42;;;;;;;;;;10115982;28;20037;-79
2023/01/13 07:57:20;;;;;;;24.33;17.88;;;;;;;;;;10118036;28;20455;-79
2023/01/13 08:02:13;;;;;;;24.05;20.80;;;;;;;;;;10098303;28;20501;-78
2023/01/13 08:07:07;;;;;;;27.55;20.90;;;;;;;;;;10108608;28;20102;-78
2023/01/13 08:17:13;;;;;;;23.13;19.60;;;;;;;;;;10109462;28;20133;-78
2023/01/13 08:22:06;;;;;;;27.38;21.15;;;;;;;;;;10117048;28;20049;-78
2023/01/13 08:27:00;;;;;;;25.45;20.80;;;;;;;;;;10120836;28;20045;-78
2023/01/13 08:31:54;;;;;;;29.15;19.30;;;;;;;;;;10122941;28;20094;-76
2023/01/13 08:36:49;;;;;;;26.95;19.27;;;;;;;;;;10116904;28;20040;-77
2023/01/13 08:41:55;;;;;;;22.55;19.63;;;;;;;;;;10117935;28;20044;-75
2023/01/13 08:46:49;;;;;;;21.92;18.98;;;;;;;;;;10121521;28;20041;-76
2023/01/13 08:51:43;;;;;;;24.80;17.33;;;;;;;;;;10110230;28;20057;-77
2023/01/13 08:56:38;;;;;;;25.52;18.52;;;;;;;;;;10118586;28;20076;-77
2023/01/13 09:01:31;;;;;;;27.33;17.80;;;;;;;;;;10118722;28;20517;-77
2023/01/13 09:06:25;;;;;;;48.75;31.48;;;;;;;;;;10121055;28;20464;-77
2023/01/13 09:16:32;;;;;;;27.75;19.30;;;;;;;;;;10117961;28;20060;-75
2023/01/13 09:21:26;;;;;;;29.98;18.85;;;;;;;;;;10123532;28;20072;-61
2023/01/13 09:26:20;;;;;;;25.50;18.65;;;;;;;;;;10120765;28;20390;-61
2023/01/13 09:31:14;;;;;;;25.90;19.75;;;;;;;;;;10117589;28;20049;-61
2023/01/13 09:36:09;;;;;;;24.48;18.08;;;;;;;;;;10113037;28;20498;-61
2023/01/13 09:43:52;;;;;;;31.38;20.00;;;;;;;;;;10121753;28;20120;-61
2023/01/13 09:51:38;;;;;;;40.33;20.55;;;;;;;;;;10116452;28;20045;-61
2023/01/13 09:56:32;;;;;;;33.83;23.67;;;;;;;;;;10125725;28;20139;-61
2023/01/13 10:02:06;;;;;;;34.10;24.30;;;;;;;;;;10113960;28;20802;-61
2023/01/13 10:07:02;;;;;;;42.25;23.50;;;;;;;;;;10040797;28;20046;-61
2023/01/13 10:18:00;;;;;;;40.75;29.05;;;;;;;;;;10121439;28;20041;-62
2023/01/13 10:23:36;;;;;;;51.05;38.65;;;;;;;;;;9936856;28;20042;-61
2023/01/13 10:28:30;;;;;;;111.95;78.32;;;;;;;;;;9983844;28;20536;-61
2023/01/13 10:33:27;;;;;;;75.03;56.10;;;;;;;;;;10123134;28;20049;-61
2023/01/13 10:38:22;;;;;;;68.07;51.05;;;;;;;;;;10120280;28;20064;-61
2023/01/13 10:43:18;;;;;;;61.00;42.13;;;;;;;;;;10122345;28;20465;-61
2023/01/13 10:48:13;;;;;;;49.30;35.95;;;;;;;;;;10123768;28;20060;-61
2023/01/13 10:53:23;;;;;;;35.83;29.13;;;;;;;;;;10125012;28;20078;-61
2023/01/13 10:58:16;;;;;;;;;;;;;;;;;;10122875;28;20055;-59
2023/01/13 11:03:22;;;;;;;39.80;29.45;;;;;;;;;;10125271;28;19944;-61
2023/01/13 11:08:19;;;;;;;33.03;27.35;;;;;;;;;;10121513;28;20040;-61
2023/01/13 11:13:29;;;;;;;38.13;28.50;;;;;;;;;;10135578;28;20131;-61
2023/01/13 11:18:25;;;;;;;72.25;51.38;;;;;;;;;;10119424;28;20432;-61
2023/01/13 11:23:38;;;;;;;41.22;31.88;;;;;;;;;;10125638;28;20386;-61
2023/01/13 11:28:44;;;;;;;36.03;28.38;;;;;;;;;;10119991;28;20097;-61
2023/01/13 11:33:57;;;;;;;56.70;38.53;;;;;;;;;;10122555;28;20513;-61
2023/01/13 11:38:57;;;;;;;47.10;33.90;;;;;;;;;;10124222;28;20521;-61
2023/01/13 11:44:16;;;;;;;59.78;36.83;;;;;;;;;;10139475;28;20093;-61
2023/01/13 11:49:20;;;;;;;56.20;36.00;;;;;;;;;;10121735;28;20114;-61
2023/01/13 11:54:16;;;;;;;47.33;32.60;;;;;;;;;;10118595;28;20045;-61
2023/01/13 12:00:17;;;;;;;37.47;28.23;;;;;;;;;;10119037;28;20068;-61
2023/01/13 12:05:28;;;;;;;34.00;27.65;;;;;;;;;;9977595;28;20524;-61
2023/01/13 12:10:42;;;;;;;47.35;26.67;;;;;;;;;;10126568;28;20070;-61
2023/01/13 12:15:52;;;;;;;37.83;28.30;;;;;;;;;;10116218;28;20410;-61
2023/01/13 12:20:59;;;;;;;36.33;28.45;;;;;;;;;;10116083;28;20099;-61
2023/01/13 12:25:57;;;;;;;36.28;29.40;;;;;;;;;;10120899;28;20102;-61
2023/01/13 12:30:55;;;;;;;43.97;32.42;;;;;;;;;;10115786;28;20053;-61
2023/01/13 12:35:57;;;;;;;43.25;31.65;;;;;;;;;;10105752;28;20573;-61
2023/01/13 12:41:19;;;;;;;39.42;29.77;;;;;;;;;;10126926;28;20051;-61
2023/01/13 12:46:18;;;;;;;36.50;28.92;;;;;;;;;;10111106;28;20065;-61
2023/01/13 12:51:49;;;;;;;38.05;28.08;;;;;;;;;;10108905;28;20055;-61
2023/01/13 12:56:43;;;;;;;32.65;27.88;;;;;;;;;;10103565;28;20060;-61
2023/01/13 13:01:37;;;;;;;30.58;25.73;;;;;;;;;;10114996;28;20059;-61
2023/01/13 13:06:31;;;;;;;34.60;28.48;;;;;;;;;;10109663;28;20129;-61
2023/01/13 13:16:53;;;;;;;89.32;60.40;;;;;;;;;;10128693;28;20048;-60
2023/01/13 13:22:11;;;;;;;43.20;33.40;;;;;;;;;;10097504;28;20056;-62
2023/01/13 13:27:39;;;;;;;41.47;31.13;;;;;;;;;;10114006;28;20049;-62
2023/01/13 13:32:50;;;;;;;36.10;31.30;;;;;;;;;;10104536;28;20052;-62
2023/01/13 13:48:18;;;;;;;39.03;31.92;;;;;;;;;;10113147;28;20080;-62
2023/01/13 13:53:12;;;;;;;39.33;29.35;;;;;;;;;;10106594;28;20501;-61
2023/01/13 13:58:14;;;;;;;36.00;29.95;;;;;;;;;;10104570;28;20048;-61
2023/01/13 14:03:25;;;;;;;33.05;29.25;;;;;;;;;;10135784;28;20033;-62
2023/01/13 14:08:20;;;;;;;40.10;30.95;;;;;;;;;;10120647;28;20068;-62
2023/01/13 14:13:31;;;;;;;41.63;29.73;;;;;;;;;;10116066;28;20080;-61
2023/01/13 14:18:25;;;;;;;36.53;30.85;;;;;;;;;;10119320;28;20087;-61
2023/01/13 14:23:23;;;;;;;39.55;31.48;;;;;;;;;;10112787;28;20141;-61
2023/01/13 14:28:37;;;;;;;46.70;28.77;;;;;;;;;;10100021;28;20091;-61
2023/01/13 14:34:22;;;;;;;35.65;28.42;;;;;;;;;;10083986;28;20078;-61
2023/01/13 14:39:33;;;;;;;37.60;31.58;;;;;;;;;;10111975;28;20053;-62
2023/01/13 14:44:29;;;;;;;35.03;28.98;;;;;;;;;;10099375;28;20040;-62
2023/01/13 14:49:40;;;;;;;39.90;31.48;;;;;;;;;;10106317;28;20076;-62
2023/01/13 14:54:48;;;;;;;33.85;30.33;;;;;;;;;;10123732;28;20404;-62
2023/01/13 14:59:50;;;;;;;42.97;33.63;;;;;;;;;;10108193;28;20138;-62
2023/01/13 15:04:44;;;;;;;35.00;27.95;;;;;;;;;;10105030;28;20049;-62
2023/01/13 15:09:43;;;;;;;33.30;29.02;;;;;;;;;;10105955;28;20075;-62
2023/01/13 15:14:38;;;;;;;33.78;28.17;;;;;;;;;;10105114;28;20470;-62
2023/01/13 15:19:32;;;;;;;50.58;30.75;;;;;;;;;;10117087;28;20059;-61
2023/01/13 15:24:25;;;;;;;35.30;29.88;;;;;;;;;;10110001;28;20456;-62
2023/01/13 15:29:19;;;;;;;41.72;33.75;;;;;;;;;;10109457;28;20049;-62
2023/01/13 15:34:13;;;;;;;44.55;36.28;;;;;;;;;;10116104;28;20101;-62
2023/01/13 15:39:06;;;;;;;35.60;30.25;;;;;;;;;;10109993;28;20049;-62
2023/01/13 15:49:18;;;;;;;40.55;33.80;;;;;;;;;;10127917;28;20080;-61
2023/01/13 15:54:11;;;;;;;41.75;34.20;;;;;;;;;;10109634;28;20053;-62
2023/01/13 15:59:38;;;;;;;38.67;33.75;;;;;;;;;;10113942;28;20071;-62
2023/01/13 16:04:32;;;;;;;45.00;33.70;;;;;;;;;;10107305;28;20057;-62
2023/01/13 16:09:27;;;;;;;41.90;32.35;;;;;;;;;;10115679;28;20065;-62
2023/01/13 16:14:20;;;;;;;41.97;30.80;;;;;;;;;;10109497;28;20056;-62
2023/01/13 16:19:13;;;;;;;39.47;31.70;;;;;;;;;;10119177;28;20136;-62
2023/01/13 16:24:06;;;;;;;46.80;33.50;;;;;;;;;;10121206;28;20083;-62
2023/01/13 16:29:00;;;;;;;39.33;31.58;;;;;;;;;;10118689;28;20506;-62
2023/01/13 16:33:53;;;;;;;45.55;35.35;;;;;;;;;;10116570;28;20049;-62
2023/01/13 16:38:48;;;;;;;50.58;35.35;;;;;;;;;;10106978;28;20049;-62
2023/01/13 16:43:42;;;;;;;54.28;43.90;;;;;;;;;;10113777;28;20037;-62
2023/01/13 16:48:35;;;;;;;43.45;36.85;;;;;;;;;;10099555;28;20548;-62
2023/01/13 16:53:29;;;;;;;44.85;37.17;;;;;;;;;;10101887;28;20076;-62
2023/01/13 16:58:24;;;;;;;50.58;37.17;;;;;;;;;;10104283;28;20139;-62
2023/01/13 17:03:18;;;;;;;60.38;45.33;;;;;;;;;;10115090;28;20379;-65
2023/01/13 17:08:17;;;;;;;82.50;51.25;;;;;;;;;;10094143;28;20048;-62
2023/01/13 17:13:10;;;;;;;62.47;44.23;;;;;;;;;;10113177;28;20236;-62
2023/01/13 17:18:10;;;;;;;64.25;42.08;;;;;;;;;;10118979;28;20466;-63
2023/01/13 17:23:04;;;;;;;55.03;42.13;;;;;;;;;;10119312;28;20690;-62
2023/01/13 17:27:58;;;;;;;57.70;44.40;;;;;;;;;;10116929;28;20493;-62
2023/01/13 17:32:52;;;;;;;65.63;44.08;;;;;;;;;;10118697;28;20413;-62
2023/01/13 17:37:46;;;;;;;55.70;40.42;;;;;;;;;;10114335;28;20128;-62
2023/01/13 17:42:41;;;;;;;61.65;43.00;;;;;;;;;;10115984;28;20429;-63
2023/01/13 17:47:35;;;;;;;60.00;40.00;;;;;;;;;;10115025;28;20044;-63
2023/01/13 17:52:28;;;;;;;56.00;42.38;;;;;;;;;;10119531;28;20059;-62
2023/01/13 17:57:22;;;;;;;53.97;39.78;;;;;;;;;;10118331;28;20065;-62
2023/01/13 18:02:18;;;;;;;63.92;45.67;;;;;;;;;;10117054;28;20099;-64
2023/01/13 18:07:12;;;;;;;59.85;43.33;;;;;;;;;;10113758;28;20041;-63
2023/01/13 18:12:06;;;;;;;91.72;57.63;;;;;;;;;;10117232;28;20048;-63
2023/01/13 18:17:00;;;;;;;69.65;53.25;;;;;;;;;;10114639;28;20455;-62
2023/01/13 18:27:23;;;;;;;68.95;50.03;;;;;;;;;;10121272;28;20989;-62
2023/01/13 18:32:17;;;;;;;69.60;52.40;;;;;;;;;;10115220;28;20577;-62
2023/01/13 18:37:10;;;;;;;74.55;51.67;;;;;;;;;;10123664;28;20508;-63
2023/01/13 18:47:18;;;;;;;52.25;44.15;;;;;;;;;;10119350;28;20057;-62
2023/01/13 18:52:12;;;;;;;53.65;39.13;;;;;;;;;;10122438;28;20482;-62
2023/01/13 18:57:06;;;;;;;65.00;45.55;;;;;;;;;;10126758;28;20152;-62
2023/01/13 19:02:01;;;;;;;58.08;43.42;;;;;;;;;;10123882;28;20061;-63
2023/01/13 19:06:59;;;;;;;54.65;40.50;;;;;;;;;;10122875;28;20139;-62
2023/01/13 19:11:53;;;;;;;50.03;38.47;;;;;;;;;;10127163;28;20057;-61
2023/01/13 19:16:47;;;;;;;55.50;42.58;;;;;;;;;;10119373;28;20079;-61
2023/01/13 19:21:41;;;;;;;49.17;38.53;;;;;;;;;;10117988;28;20048;-61
2023/01/13 19:26:35;;;;;;;56.50;43.88;;;;;;;;;;10120454;28;20045;-61
2023/01/13 19:31:29;;;;;;;53.60;38.10;;;;;;;;;;10121906;28;20044;-61
2023/01/13 19:36:23;;;;;;;48.95;41.47;;;;;;;;;;10119674;28;20049;-62
2023/01/13 19:46:30;;;;;;;56.00;43.83;;;;;;;;;;10122761;28;20055;-61
2023/01/13 19:51:24;;;;;;;71.32;51.22;;;;;;;;;;10121225;28;20053;-61
2023/01/13 19:56:17;;;;;;;75.85;52.40;;;;;;;;;;10119947;28;20640;-61
2023/01/13 20:01:14;;;;;;;58.63;47.47;;;;;;;;;;10119942;28;20642;-61
2023/01/13 20:06:10;;;;;;;69.13;53.30;;;;;;;;;;10119929;28;20033;-61
2023/01/13 20:11:20;;;;;;;64.53;50.50;;;;;;;;;;10121199;28;20076;-61
2023/01/13 20:16:14;;;;;;;80.60;52.47;;;;;;;;;;10122428;28;20045;-61
2023/01/13 20:21:07;;;;;;;64.15;50.20;;;;;;;;;;10120600;28;20397;-62
2023/01/13 20:26:01;;;;;;;71.45;53.72;;;;;;;;;;10120465;28;20151;-62
2023/01/13 20:30:56;;;;;;;61.47;46.47;;;;;;;;;;10117918;28;20083;-61
2023/01/13 20:36:16;;;;;;;53.75;44.47;;;;;;;;;;10121854;28;20391;-66
2023/01/13 20:46:21;;;;;;;54.28;43.80;;;;;;;;;;10123253;28;20052;-60
2023/01/13 20:51:15;;;;;;;63.33;47.65;;;;;;;;;;10124185;28;20057;-60
2023/01/13 20:56:09;;;;;;;61.65;48.53;;;;;;;;;;10125260;28;20095;-60
2023/01/13 21:01:04;;;;;;;63.33;51.05;;;;;;;;;;10120314;28;20058;-60
2023/01/13 21:05:58;;;;;;;66.10;51.40;;;;;;;;;;10118823;28;20151;-60
2023/01/13 21:10:59;;;;;;;69.30;54.38;;;;;;;;;;10113020;28;20052;-60
2023/01/13 21:15:54;;;;;;;62.78;50.45;;;;;;;;;;10117794;28;20063;-61
2023/01/13 21:20:50;;;;;;;54.83;43.35;;;;;;;;;;10119113;28;20057;-61
2023/01/13 21:25:44;;;;;;;63.20;49.63;;;;;;;;;;10120947;28;20048;-61
2023/01/13 21:30:38;;;;;;;64.50;46.28;;;;;;;;;;10116873;28;20503;-61
2023/01/13 21:35:32;;;;;;;58.15;44.08;;;;;;;;;;10116197;28;20056;-61
2023/01/13 21:40:26;;;;;;;49.22;39.40;;;;;;;;;;10115582;28;20064;-61
2023/01/13 21:50:32;;;;;;;49.80;38.17;;;;;;;;;;10111262;28;20565;-61
2023/01/13 21:55:27;;;;;;;51.88;41.80;;;;;;;;;;10111534;28;20053;-61
2023/01/13 22:00:25;;;;;;;46.03;38.13;;;;;;;;;;10113481;28;20075;-61
2023/01/13 22:05:21;;;;;;;44.40;38.90;;;;;;;;;;10116537;28;20418;-62
2023/01/13 22:10:55;;;;;;;49.35;37.40;;;;;;;;;;10113790;28;20115;-61
2023/01/13 22:15:50;;;;;;;68.40;46.40;;;;;;;;;;10123353;28;20124;-60
2023/01/13 22:20:45;;;;;;;53.13;40.13;;;;;;;;;;10114697;28;20058;-60
2023/01/13 22:25:39;;;;;;;52.47;45.13;;;;;;;;;;10127974;28;20048;-60
2023/01/13 22:30:33;;;;;;;60.40;43.20;;;;;;;;;;10124963;28;20059;-60
2023/01/13 22:35:26;;;;;;;53.72;41.42;;;;;;;;;;10128536;28;20051;-61
2023/01/13 22:40:20;;;;;;;52.25;41.38;;;;;;;;;;10114722;28;20048;-60
2023/01/13 22:45:14;;;;;;;42.38;34.80;;;;;;;;;;10118612;28;20133;-60
2023/01/13 22:50:11;;;;;;;51.22;37.95;;;;;;;;;;10111251;28;20052;-60
2023/01/13 22:55:05;;;;;;;50.97;37.60;;;;;;;;;;10118636;28;20139;-60
2023/01/13 22:59:59;;;;;;;36.15;31.85;;;;;;;;;;10109303;28;20060;-60
2023/01/13 23:04:52;;;;;;;41.30;32.33;;;;;;;;;;10109573;28;20041;-59
2023/01/13 23:09:46;;;;;;;36.78;31.13;;;;;;;;;;10123145;28;20049;-60
2023/01/13 23:14:40;;;;;;;39.83;32.67;;;;;;;;;;10128061;28;20123;-60
2023/01/13 23:19:34;;;;;;;35.05;30.20;;;;;;;;;;10112428;28;20060;-59
2023/01/13 23:24:28;;;;;;;37.65;29.48;;;;;;;;;;10107326;28;20056;-60
2023/01/13 23:29:22;;;;;;;39.88;32.00;;;;;;;;;;10111140;28;20464;-60
2023/01/13 23:34:17;;;;;;;44.03;33.88;;;;;;;;;;10109245;28;20080;-60
2023/01/13 23:39:10;;;;;;;35.30;31.10;;;;;;;;;;10115960;28;20132;-60
2023/01/13 23:44:05;;;;;;;39.25;32.60;;;;;;;;;;10109936;28;20049;-59
2023/01/13 23:49:01;;;;;;;37.83;30.80;;;;;;;;;;10109897;28;20788;-60
2023/01/13 23:53:56;;;;;;;35.88;27.83;;;;;;;;;;10109036;28;20608;-60
2023/01/13 23:58:50;;;;;;;35.65;28.30;;;;;;;;;;10109605;28;20548;-60
